Time;durP1;ratioP1;P1;durP2;ratioP2;P2;SDS_P1;SDS_P2;PMS_P1;PMS_P2;Temp;Humidity;BMP_temperature;BMP_pressure;BME280_temperature;BME280_humidity;BME280_pressure;Samples;Min_cycle;Max_cycle;Signal;HPM_P1;HPM_P2
2023/12/27 00:01:22;;;;;;;8.90;5.25;;;;;;;;;;5049016;28;20029;-55
2023/12/27 00:03:48;;;;;;;8.00;5.13;;;;;;;;;;5062298;28;20469;-56
2023/12/27 00:06:13;;;;;;;8.30;5.45;;;;;;;;;;5049267;28;20047;-57
2023/12/27 00:08:38;;;;;;;8.20;5.18;;;;;;;;;;5084222;28;20038;-56
2023/12/27 00:11:04;;;;;;;7.75;5.18;;;;;;;;;;5052518;28;20052;-57
2023/12/27 00:13:29;;;;;;;7.78;5.20;;;;;;;;;;5043793;28;20446;-55
2023/12/27 00:15:54;;;;;;;7.65;5.15;;;;;;;;;;5058970;28;20413;-54
2023/12/27 00:18:20;;;;;;;6.95;5.32;;;;;;;;;;5075600;28;20495;-55
2023/12/27 00:20:47;;;;;;;7.47;5.10;;;;;;;;;;5081469;28;20494;-56
2023/12/27 00:23:13;;;;;;;7.25;5.32;;;;;;;;;;5062755;28;20157;-54
2023/12/27 00:25:39;;;;;;;7.50;5.15;;;;;;;;;;5048390;28;20103;-55
2023/12/27 00:28:06;;;;;;;7.97;5.28;;;;;;;;;;5051095;28;20044;-56
2023/12/27 00:30:31;;;;;;;8.65;5.55;;;;;;;;;;5121772;22;20381;-58
2023/12/27 00:32:57;;;;;;;6.80;5.40;;;;;;;;;;5102180;28;20047;-59
2023/12/27 00:35:22;;;;;;;7.32;5.32;;;;;;;;;;5087448;28;20035;-59
2023/12/27 00:37:47;;;;;;;6.43;4.90;;;;;;;;;;5103342;28;20559;-58
2023/12/27 00:40:13;;;;;;;7.60;5.00;;;;;;;;;;5084833;28;20511;-59
2023/12/27 00:42:38;;;;;;;7.55;4.97;;;;;;;;;;5086522;28;20027;-59
2023/12/27 00:45:04;;;;;;;7.70;5.45;;;;;;;;;;5104268;28;20032;-59
2023/12/27 00:50:03;;;;;;;6.93;4.90;;;;;;;;;;5122588;22;20054;-76
2023/12/27 00:52:29;;;;;;;8.23;5.07;;;;;;;;;;5106816;28;20156;-77
2023/12/27 00:54:56;;;;;;;8.77;5.72;;;;;;;;;;5091889;28;20110;-76
2023/12/27 00:57:21;;;;;;;7.28;5.13;;;;;;;;;;5108374;28;20035;-77
2023/12/27 00:59:47;;;;;;;6.75;5.20;;;;;;;;;;5081523;28;20031;-77
2023/12/27 01:02:12;;;;;;;7.80;5.50;;;;;;;;;;5100610;28;20044;-77
2023/12/27 01:04:38;;;;;;;7.00;4.75;;;;;;;;;;5109376;28;20070;-77
2023/12/27 01:07:03;;;;;;;9.25;5.18;;;;;;;;;;5100722;28;20055;-77
2023/12/27 01:09:28;;;;;;;7.10;4.88;;;;;;;;;;5090061;28;20035;-77
2023/12/27 01:11:54;;;;;;;7.78;5.55;;;;;;;;;;5079694;28;20333;-77
2023/12/27 01:14:19;;;;;;;7.20;5.32;;;;;;;;;;5097829;28;20032;-77
2023/12/27 01:16:45;;;;;;;7.32;5.20;;;;;;;;;;5104760;28;20042;-77
2023/12/27 01:19:10;;;;;;;7.55;5.20;;;;;;;;;;5098083;28;20032;-77
2023/12/27 01:21:35;;;;;;;6.72;5.10;;;;;;;;;;5109114;28;20104;-77
2023/12/27 01:24:01;;;;;;;7.32;4.63;;;;;;;;;;5088418;28;20137;-76
2023/12/27 01:26:26;;;;;;;7.82;4.95;;;;;;;;;;5106711;28;20028;-77
2023/12/27 01:28:51;;;;;;;7.43;4.88;;;;;;;;;;5090740;28;20119;-74
2023/12/27 01:31:16;;;;;;;8.02;5.30;;;;;;;;;;5106474;28;20407;-77
2023/12/27 01:33:42;;;;;;;7.32;4.80;;;;;;;;;;5093673;28;20047;-77
2023/12/27 01:36:07;;;;;;;7.38;5.22;;;;;;;;;;5110027;28;20050;-77
2023/12/27 01:38:33;;;;;;;7.25;5.35;;;;;;;;;;5067164;28;20181;-76
2023/12/27 01:40:59;;;;;;;6.38;4.60;;;;;;;;;;5074925;28;20043;-76
2023/12/27 01:43:24;;;;;;;7.03;4.97;;;;;;;;;;5091884;28;20028;-76
2023/12/27 01:45:50;;;;;;;8.25;4.95;;;;;;;;;;5103519;28;20539;-77
2023/12/27 01:48:15;;;;;;;6.80;4.90;;;;;;;;;;5087368;28;20040;-77
2023/12/27 01:50:41;;;;;;;6.22;4.53;;;;;;;;;;5062430;28;20434;-77
2023/12/27 01:53:08;;;;;;;6.40;4.72;;;;;;;;;;5105449;28;20038;-77
2023/12/27 01:55:33;;;;;;;6.82;4.88;;;;;;;;;;5078675;28;20502;-77
2023/12/27 01:58:00;;;;;;;6.03;4.75;;;;;;;;;;5088445;28;20028;-77
2023/12/27 02:00:26;;;;;;;7.28;4.65;;;;;;;;;;5099417;28;20075;-77
2023/12/27 02:02:51;;;;;;;6.97;5.03;;;;;;;;;;5092948;28;20064;-76
2023/12/27 02:05:17;;;;;;;6.63;4.90;;;;;;;;;;5073335;28;20068;-77
2023/12/27 02:07:42;;;;;;;6.10;4.68;;;;;;;;;;5082360;28;20055;-77
2023/12/27 02:10:07;;;;;;;6.07;4.43;;;;;;;;;;5104054;28;20043;-77
2023/12/27 02:12:33;;;;;;;7.80;4.95;;;;;;;;;;5085147;28;20371;-77
2023/12/27 02:14:58;;;;;;;6.70;4.57;;;;;;;;;;5090270;28;20031;-77
2023/12/27 02:17:25;;;;;;;5.63;4.68;;;;;;;;;;5091291;28;20567;-77
2023/12/27 02:19:50;;;;;;;7.70;4.65;;;;;;;;;;5107289;28;20042;-77
2023/12/27 02:22:17;;;;;;;6.30;4.38;;;;;;;;;;5085941;28;20032;-77
2023/12/27 02:24:42;;;;;;;6.00;4.50;;;;;;;;;;5091005;28;20575;-77
2023/12/27 02:27:08;;;;;;;5.93;4.28;;;;;;;;;;5090843;28;20127;-77
2023/12/27 02:29:34;;;;;;;6.57;4.55;;;;;;;;;;5096006;28;20036;-77
2023/12/27 02:31:59;;;;;;;6.22;4.25;;;;;;;;;;5099031;28;20115;-77
2023/12/27 02:34:24;;;;;;;7.38;4.75;;;;;;;;;;5101307;28;20119;-77
2023/12/27 02:36:50;;;;;;;6.80;4.45;;;;;;;;;;5108112;28;20047;-77
2023/12/27 02:39:15;;;;;;;6.40;4.38;;;;;;;;;;5072503;28;20028;-77
2023/12/27 02:41:41;;;;;;;7.68;4.88;;;;;;;;;;5094780;28;20131;-77
2023/12/27 02:44:06;;;;;;;5.85;4.45;;;;;;;;;;5097834;28;20043;-77
2023/12/27 02:46:33;;;;;;;6.80;4.30;;;;;;;;;;5093457;28;20480;-77
2023/12/27 02:48:58;;;;;;;6.35;4.47;;;;;;;;;;5089366;28;20551;-76
2023/12/27 02:51:23;;;;;;;6.28;4.20;;;;;;;;;;5098073;28;20023;-77
2023/12/27 02:53:49;;;;;;;6.03;4.28;;;;;;;;;;5086760;28;20020;-76
2023/12/27 02:56:14;;;;;;;6.70;4.45;;;;;;;;;;5103325;28;20067;-77
2023/12/27 02:58:39;;;;;;;7.50;4.40;;;;;;;;;;5104390;28;20178;-77
2023/12/27 03:01:05;;;;;;;5.63;4.03;;;;;;;;;;5108800;28;20038;-76
2023/12/27 03:03:31;;;;;;;6.03;4.22;;;;;;;;;;5097384;28;20073;-77
2023/12/27 03:05:56;;;;;;;5.97;4.53;;;;;;;;;;5093912;28;20035;-77
2023/12/27 03:08:21;;;;;;;5.78;4.20;;;;;;;;;;5112440;28;20024;-77
2023/12/27 03:10:47;;;;;;;6.03;4.55;;;;;;;;;;5080790;28;20052;-77
2023/12/27 03:13:12;;;;;;;5.68;3.85;;;;;;;;;;5110302;28;20406;-77
2023/12/27 03:15:37;;;;;;;5.93;4.35;;;;;;;;;;5105156;28;20499;-77
2023/12/27 03:18:03;;;;;;;5.88;4.15;;;;;;;;;;5096472;28;20106;-76
2023/12/27 03:20:28;;;;;;;5.47;4.10;;;;;;;;;;5108480;28;20506;-77
2023/12/27 03:22:53;;;;;;;6.57;4.13;;;;;;;;;;5112051;28;20020;-77
2023/12/27 03:25:19;;;;;;;5.47;3.78;;;;;;;;;;5111700;28;20028;-78
2023/12/27 03:27:44;;;;;;;6.47;4.50;;;;;;;;;;5102965;28;20027;-78
2023/12/27 03:30:10;;;;;;;5.55;4.00;;;;;;;;;;5110215;28;20480;-77
2023/12/27 03:32:35;;;;;;;5.85;4.22;;;;;;;;;;5109154;28;20118;-78
2023/12/27 03:35:00;;;;;;;6.38;4.53;;;;;;;;;;5101615;28;20115;-78
2023/12/27 03:37:26;;;;;;;5.90;3.95;;;;;;;;;;5103947;28;20046;-77
2023/12/27 03:39:51;;;;;;;5.43;3.75;;;;;;;;;;5108112;28;20024;-78
2023/12/27 03:42:19;;;;;;;4.70;3.53;;;;;;;;;;5111575;28;20035;-78
2023/12/27 03:44:44;;;;;;;5.40;4.20;;;;;;;;;;5102445;28;20020;-78
2023/12/27 03:47:10;;;;;;;4.65;3.65;;;;;;;;;;5099176;28;20053;-78
2023/12/27 03:49:35;;;;;;;4.97;3.63;;;;;;;;;;5098845;28;20040;-78
2023/12/27 03:52:00;;;;;;;5.45;4.03;;;;;;;;;;5098077;28;20024;-78
2023/12/27 03:54:26;;;;;;;4.70;3.80;;;;;;;;;;5098374;28;20190;-78
2023/12/27 03:56:51;;;;;;;6.13;4.30;;;;;;;;;;5100555;28;20040;-78
2023/12/27 03:59:16;;;;;;;4.95;3.75;;;;;;;;;;5099182;28;20496;-77
2023/12/27 04:01:41;;;;;;;5.78;4.00;;;;;;;;;;5098072;28;20035;-77
2023/12/27 04:04:07;;;;;;;5.40;3.80;;;;;;;;;;5111672;28;20066;-76
2023/12/27 04:06:33;;;;;;;6.35;3.88;;;;;;;;;;5094213;28;20041;-78
2023/12/27 04:08:58;;;;;;;5.05;3.80;;;;;;;;;;5093959;28;20039;-78
2023/12/27 04:11:23;;;;;;;5.13;3.50;;;;;;;;;;5107526;28;20115;-77
2023/12/27 04:13:48;;;;;;;5.88;3.80;;;;;;;;;;5080890;28;20039;-76
2023/12/27 04:16:14;;;;;;;5.35;3.75;;;;;;;;;;5111151;28;20100;-77
2023/12/27 04:18:39;;;;;;;5.07;3.53;;;;;;;;;;5097806;28;20038;-77
2023/12/27 04:21:04;;;;;;;5.75;3.78;;;;;;;;;;5059290;28;20052;-76
2023/12/27 04:23:30;;;;;;;5.95;4.00;;;;;;;;;;5111440;28;20057;-77
2023/12/27 04:25:55;;;;;;;4.93;3.72;;;;;;;;;;5111825;28;20027;-77
2023/12/27 04:28:21;;;;;;;4.72;3.50;;;;;;;;;;5091733;28;20039;-77
2023/12/27 04:30:46;;;;;;;5.07;3.65;;;;;;;;;;5099264;28;20044;-77
2023/12/27 04:33:11;;;;;;;5.63;3.80;;;;;;;;;;5071954;28;20065;-76
2023/12/27 04:35:36;;;;;;;4.90;3.88;;;;;;;;;;5086445;28;20035;-77
2023/12/27 04:38:02;;;;;;;4.72;3.50;;;;;;;;;;5105488;28;20032;-77
2023/12/27 04:40:28;;;;;;;5.25;3.20;;;;;;;;;;5091722;28;20538;-77
2023/12/27 04:42:53;;;;;;;5.78;3.65;;;;;;;;;;5106801;28;20081;-77
2023/12/27 04:45:18;;;;;;;4.57;3.58;;;;;;;;;;5107164;28;20019;-77
2023/12/27 04:47:44;;;;;;;4.53;3.30;;;;;;;;;;5110333;28;20174;-77
2023/12/27 04:50:09;;;;;;;5.50;3.60;;;;;;;;;;5097672;28;20052;-78
2023/12/27 04:52:34;;;;;;;5.22;3.80;;;;;;;;;;5104501;28;20032;-78
2023/12/27 04:55:00;;;;;;;4.43;3.33;;;;;;;;;;5075514;28;20527;-77
2023/12/27 04:57:25;;;;;;;4.65;3.30;;;;;;;;;;5093275;28;20392;-78
2023/12/27 04:59:50;;;;;;;5.65;3.58;;;;;;;;;;5110631;28;20027;-78
2023/12/27 05:02:16;;;;;;;5.20;3.63;;;;;;;;;;5083339;28;20138;-78
2023/12/27 05:04:41;;;;;;;4.50;3.50;;;;;;;;;;5091291;28;20111;-78
2023/12/27 05:07:06;;;;;;;6.47;3.53;;;;;;;;;;5103051;28;20233;-78
2023/12/27 05:09:32;;;;;;;4.55;3.47;;;;;;;;;;5092084;28;20111;-78
2023/12/27 05:11:57;;;;;;;4.90;3.65;;;;;;;;;;5107546;28;20046;-77
2023/12/27 05:14:22;;;;;;;5.28;3.30;;;;;;;;;;5099370;28;20035;-78
2023/12/27 05:16:48;;;;;;;4.68;3.30;;;;;;;;;;5096220;28;20047;-77
2023/12/27 05:19:13;;;;;;;5.07;3.58;;;;;;;;;;5108430;28;20024;-78
2023/12/27 05:21:38;;;;;;;4.97;3.40;;;;;;;;;;5098759;28;20035;-77
2023/12/27 05:24:04;;;;;;;4.88;3.33;;;;;;;;;;5108968;28;20470;-77
2023/12/27 05:26:29;;;;;;;4.50;3.30;;;;;;;;;;5109644;28;20118;-77
2023/12/27 05:28:55;;;;;;;5.40;3.28;;;;;;;;;;5099564;28;20497;-77
2023/12/27 05:31:20;;;;;;;4.18;2.90;;;;;;;;;;5082858;28;20050;-77
2023/12/27 05:33:45;;;;;;;4.65;3.15;;;;;;;;;;5109195;28;20379;-77
2023/12/27 05:36:11;;;;;;;4.32;3.10;;;;;;;;;;5095591;28;20063;-78
2023/12/27 05:38:36;;;;;;;5.13;3.45;;;;;;;;;;5078827;28;20080;-78
2023/12/27 05:41:03;;;;;;;5.10;3.38;;;;;;;;;;5092997;28;20059;-77
2023/12/27 05:43:28;;;;;;;4.20;3.03;;;;;;;;;;5089555;28;20067;-77
2023/12/27 05:45:53;;;;;;;4.07;2.92;;;;;;;;;;5072971;28;20040;-76
2023/12/27 05:48:19;;;;;;;4.43;2.85;;;;;;;;;;5075424;28;20036;-78
2023/12/27 05:50:44;;;;;;;4.68;3.15;;;;;;;;;;5075381;28;20036;-78
2023/12/27 05:53:10;;;;;;;4.47;3.20;;;;;;;;;;5094032;28;20087;-77
2023/12/27 05:55:35;;;;;;;4.22;3.03;;;;;;;;;;5088080;28;20040;-77
2023/12/27 05:58:00;;;;;;;4.43;3.13;;;;;;;;;;5071964;28;20032;-77
2023/12/27 06:00:26;;;;;;;4.80;3.08;;;;;;;;;;5075414;28;20048;-76
2023/12/27 06:02:51;;;;;;;3.65;2.75;;;;;;;;;;5087892;28;20037;-77
2023/12/27 06:05:17;;;;;;;4.68;3.03;;;;;;;;;;5079273;28;20062;-77
2023/12/27 06:07:42;;;;;;;3.65;2.88;;;;;;;;;;5086895;28;20395;-76
2023/12/27 06:10:08;;;;;;;4.05;2.63;;;;;;;;;;5106792;28;20050;-76
2023/12/27 06:12:33;;;;;;;3.90;2.80;;;;;;;;;;5085923;28;20048;-76
2023/12/27 06:14:59;;;;;;;4.13;2.85;;;;;;;;;;5091721;28;20023;-75
2023/12/27 06:17:24;;;;;;;5.30;3.17;;;;;;;;;;5081435;28;20051;-76
2023/12/27 06:19:49;;;;;;;3.40;2.53;;;;;;;;;;5091779;28;20044;-76
2023/12/27 06:22:16;;;;;;;4.15;2.83;;;;;;;;;;5096003;28;20482;-76
2023/12/27 06:24:41;;;;;;;5.03;3.03;;;;;;;;;;5110709;27;20122;-76
2023/12/27 06:27:06;;;;;;;3.97;2.72;;;;;;;;;;5105816;28;20636;-76
2023/12/27 06:29:35;;;;;;;3.47;2.70;;;;;;;;;;5109430;28;20071;-75
2023/12/27 06:32:02;;;;;;;3.80;2.85;;;;;;;;;;5104996;28;20035;-76
2023/12/27 06:34:28;;;;;;;4.70;2.83;;;;;;;;;;5108272;28;20043;-75
2023/12/27 06:36:53;;;;;;;4.30;2.75;;;;;;;;;;5091663;28;20028;-76
2023/12/27 06:39:18;;;;;;;3.92;2.55;;;;;;;;;;5108226;28;20146;-77
2023/12/27 06:41:44;;;;;;;4.25;3.03;;;;;;;;;;5098881;28;20644;-78
2023/12/27 06:44:09;;;;;;;4.18;2.83;;;;;;;;;;5100166;28;20653;-76
2023/12/27 06:46:35;;;;;;;3.70;2.40;;;;;;;;;;5081901;28;20035;-77
2023/12/27 06:49:00;;;;;;;4.45;2.65;;;;;;;;;;5091233;28;20122;-76
2023/12/27 06:51:25;;;;;;;2.92;2.20;;;;;;;;;;5086725;28;20069;-76
2023/12/27 06:53:50;;;;;;;3.92;2.72;;;;;;;;;;5107016;28;20055;-77
2023/12/27 06:56:17;;;;;;;3.72;2.25;;;;;;;;;;5089584;28;20396;-77
2023/12/27 06:58:42;;;;;;;3.72;2.65;;;;;;;;;;5080587;28;20529;-77
2023/12/27 07:01:09;;;;;;;3.53;2.40;;;;;;;;;;5099289;28;20035;-75
2023/12/27 07:03:35;;;;;;;3.10;2.20;;;;;;;;;;5089589;28;20024;-77
2023/12/27 07:06:00;;;;;;;4.18;2.60;;;;;;;;;;5081974;28;20036;-76
2023/12/27 07:08:25;;;;;;;3.50;2.50;;;;;;;;;;5105016;28;20044;-76
2023/12/27 07:10:51;;;;;;;3.22;2.45;;;;;;;;;;5084136;28;20043;-77
2023/12/27 07:13:16;;;;;;;3.67;2.33;;;;;;;;;;5090702;28;20040;-78
2023/12/27 07:15:41;;;;;;;4.60;2.80;;;;;;;;;;5077987;28;20408;-77
2023/12/27 07:18:07;;;;;;;3.95;2.33;;;;;;;;;;5098827;27;20036;-76
2023/12/27 07:20:32;;;;;;;3.30;2.13;;;;;;;;;;5084249;28;20134;-77
2023/12/27 07:22:57;;;;;;;3.42;2.15;;;;;;;;;;5090803;28;20036;-78
2023/12/27 07:25:23;;;;;;;3.08;2.10;;;;;;;;;;5071323;28;20046;-78
2023/12/27 07:27:48;;;;;;;3.58;2.30;;;;;;;;;;5087834;28;20044;-77
2023/12/27 07:30:14;;;;;;;3.72;2.20;;;;;;;;;;5083067;28;20040;-77
2023/12/27 07:32:42;;;;;;;4.13;2.45;;;;;;;;;;5089378;28;20119;-77
2023/12/27 07:35:07;;;;;;;3.60;2.28;;;;;;;;;;5099629;28;20410;-77
2023/12/27 07:37:32;;;;;;;3.35;2.20;;;;;;;;;;5085687;28;20077;-78
2023/12/27 07:39:58;;;;;;;4.03;2.47;;;;;;;;;;5097285;28;20040;-77
2023/12/27 07:42:24;;;;;;;3.08;2.10;;;;;;;;;;5096954;28;20150;-77
2023/12/27 07:44:52;;;;;;;3.40;2.40;;;;;;;;;;5074243;28;20686;-77
2023/12/27 07:47:17;;;;;;;3.47;2.50;;;;;;;;;;5085060;28;20168;-79
2023/12/27 07:49:42;;;;;;;3.00;2.08;;;;;;;;;;5090790;28;20043;-76
2023/12/27 07:52:08;;;;;;;3.45;2.38;;;;;;;;;;5081681;28;20068;-76
2023/12/27 07:54:35;;;;;;;3.65;2.17;;;;;;;;;;5083588;28;20560;-78
2023/12/27 07:57:00;;;;;;;3.17;2.10;;;;;;;;;;5080690;28;20545;-81
2023/12/27 07:59:26;;;;;;;3.47;2.05;;;;;;;;;;5074259;28;20024;-80
2023/12/27 08:01:52;;;;;;;2.92;1.80;;;;;;;;;;5090725;28;20058;-80
2023/12/27 08:04:17;;;;;;;3.10;1.98;;;;;;;;;;5078187;28;20060;-81
2023/12/27 08:06:42;;;;;;;3.97;2.20;;;;;;;;;;5080760;28;20036;-79
2023/12/27 08:09:08;;;;;;;2.80;2.05;;;;;;;;;;5096079;28;20036;-76
2023/12/27 08:11:34;;;;;;;3.78;2.25;;;;;;;;;;5089362;28;20047;-77
2023/12/27 08:13:59;;;;;;;3.40;2.20;;;;;;;;;;5084715;28;20032;-77
2023/12/27 08:16:24;;;;;;;3.28;2.00;;;;;;;;;;5097792;28;20035;-78
2023/12/27 08:18:50;;;;;;;3.95;2.15;;;;;;;;;;5095500;28;20139;-80
2023/12/27 08:21:15;;;;;;;3.25;2.00;;;;;;;;;;5092348;28;20515;-79
2023/12/27 08:23:41;;;;;;;2.95;2.05;;;;;;;;;;5080576;28;20047;-77
2023/12/27 08:26:06;;;;;;;2.67;1.70;;;;;;;;;;5091878;28;20580;-79
2023/12/27 08:28:36;;;;;;;3.08;1.83;;;;;;;;;;5063666;28;20038;-80
2023/12/27 08:31:04;;;;;;;3.05;2.05;;;;;;;;;;5074570;28;20055;-77
2023/12/27 08:33:30;;;;;;;3.55;2.65;;;;;;;;;;5078218;28;20081;-78
2023/12/27 08:35:56;;;;;;;2.42;1.83;;;;;;;;;;5075870;28;20089;-77
2023/12/27 08:38:23;;;;;;;2.88;2.00;;;;;;;;;;5082298;28;20185;-76
2023/12/27 08:40:49;;;;;;;3.50;2.00;;;;;;;;;;5092460;28;20024;-78
2023/12/27 08:43:14;;;;;;;3.13;1.90;;;;;;;;;;5096207;28;20069;-78
2023/12/27 08:45:39;;;;;;;3.08;1.88;;;;;;;;;;5089398;28;20106;-77
2023/12/27 08:48:06;;;;;;;2.83;1.92;;;;;;;;;;5079883;28;20032;-77
2023/12/27 08:50:32;;;;;;;2.67;1.70;;;;;;;;;;5079716;28;20036;-77
2023/12/27 08:52:57;;;;;;;2.70;1.90;;;;;;;;;;5074812;28;20035;-77
2023/12/27 08:55:23;;;;;;;2.20;1.60;;;;;;;;;;5090776;28;20032;-78
2023/12/27 08:57:48;;;;;;;2.30;1.73;;;;;;;;;;5089932;28;20016;-76
2023/12/27 09:00:13;;;;;;;3.03;1.88;;;;;;;;;;5090868;28;20069;-77
2023/12/27 09:02:39;;;;;;;3.28;1.75;;;;;;;;;;5092794;28;20111;-77
2023/12/27 09:05:07;;;;;;;3.08;1.90;;;;;;;;;;5076102;28;20098;-77
2023/12/27 09:07:33;;;;;;;2.72;1.63;;;;;;;;;;5059819;28;20024;-78
2023/12/27 09:09:58;;;;;;;2.83;1.90;;;;;;;;;;5083955;28;20020;-76
2023/12/27 09:12:24;;;;;;;2.60;1.70;;;;;;;;;;5077903;28;20089;-77
2023/12/27 09:14:49;;;;;;;3.10;1.70;;;;;;;;;;5090067;28;20013;-76
2023/12/27 09:17:15;;;;;;;3.72;1.92;;;;;;;;;;5076938;28;20490;-76
2023/12/27 09:19:41;;;;;;;2.10;1.45;;;;;;;;;;5089628;28;20032;-77
2023/12/27 09:22:07;;;;;;;2.92;1.80;;;;;;;;;;5091572;28;20023;-76
2023/12/27 09:24:33;;;;;;;2.50;1.65;;;;;;;;;;5080465;28;20112;-76
2023/12/27 09:26:58;;;;;;;3.03;1.88;;;;;;;;;;5090569;28;20059;-77
2023/12/27 09:29:24;;;;;;;2.97;1.73;;;;;;;;;;5087352;28;20016;-76
2023/12/27 09:31:49;;;;;;;3.30;1.98;;;;;;;;;;5093391;28;20016;-77
2023/12/27 09:34:16;;;;;;;3.63;1.90;;;;;;;;;;5060832;28;20084;-76
2023/12/27 09:36:43;;;;;;;3.20;2.10;;;;;;;;;;5080074;28;20071;-77
2023/12/27 09:39:11;;;;;;;3.08;1.90;;;;;;;;;;5093467;28;20099;-77
2023/12/27 09:41:36;;;;;;;2.97;1.70;;;;;;;;;;5098425;28;20043;-77
2023/12/27 09:44:02;;;;;;;3.78;1.95;;;;;;;;;;5080824;28;20032;-78
2023/12/27 09:46:28;;;;;;;3.70;1.80;;;;;;;;;;5083064;28;20571;-78
2023/12/27 09:48:53;;;;;;;4.80;1.77;;;;;;;;;;5094000;28;20039;-78
2023/12/27 09:51:23;;;;;;;2.60;1.67;;;;;;;;;;5084944;28;20538;-78
2023/12/27 09:53:51;;;;;;;2.47;1.63;;;;;;;;;;5091191;28;20036;-76
2023/12/27 09:56:18;;;;;;;5.30;2.80;;;;;;;;;;5105393;28;20040;-75
2023/12/27 09:58:43;;;;;;;9.70;3.22;;;;;;;;;;5085673;28;20028;-78
2023/12/27 10:01:09;;;;;;;6.00;3.22;;;;;;;;;;5087201;28;20121;-77
2023/12/27 10:03:35;;;;;;;8.10;3.40;;;;;;;;;;5090004;28;20036;-75
2023/12/27 10:06:09;;;;;;;6.95;2.72;;;;;;;;;;5085618;28;20047;-77
2023/12/27 10:08:35;;;;;;;8.25;2.80;;;;;;;;;;5086354;28;20048;-77
2023/12/27 10:11:02;;;;;;;5.95;2.90;;;;;;;;;;5100019;28;20081;-76
2023/12/27 10:13:27;;;;;;;8.65;3.88;;;;;;;;;;5098637;28;20189;-75
2023/12/27 10:15:53;;;;;;;9.43;3.78;;;;;;;;;;5087284;28;20127;-76
2023/12/27 10:18:18;;;;;;;10.10;3.90;;;;;;;;;;5084311;28;20028;-76
2023/12/27 10:20:48;;;;;;;7.63;3.35;;;;;;;;;;5081169;28;20035;-77
2023/12/27 10:23:13;;;;;;;6.63;3.30;;;;;;;;;;5097769;28;20363;-77
2023/12/27 10:25:40;;;;;;;7.93;3.10;;;;;;;;;;5075557;28;20028;-77
2023/12/27 10:28:05;;;;;;;5.55;2.78;;;;;;;;;;5078136;28;20120;-77
2023/12/27 10:30:30;;;;;;;7.55;3.00;;;;;;;;;;5093444;28;20048;-85
2023/12/27 10:32:56;;;;;;;6.95;3.20;;;;;;;;;;5072361;28;20138;-77
2023/12/27 10:35:22;;;;;;;7.05;2.78;;;;;;;;;;5082288;28;20057;-77
2023/12/27 10:37:52;;;;;;;7.53;2.70;;;;;;;;;;5096847;28;20028;-78
2023/12/27 10:40:20;;;;;;;4.65;2.60;;;;;;;;;;5065583;28;20111;-79
2023/12/27 10:42:46;;;;;;;7.85;2.70;;;;;;;;;;5096599;28;20037;-79
2023/12/27 10:45:11;;;;;;;6.65;2.97;;;;;;;;;;5068069;28;20032;-77
2023/12/27 10:47:37;;;;;;;5.55;2.50;;;;;;;;;;5093473;28;20043;-77
2023/12/27 10:50:02;;;;;;;6.65;2.40;;;;;;;;;;5077938;28;20064;-78
2023/12/27 10:52:27;;;;;;;6.95;2.92;;;;;;;;;;5070097;28;20587;-77
2023/12/27 10:54:54;;;;;;;6.13;2.80;;;;;;;;;;5078484;28;20059;-79
2023/12/27 10:57:21;;;;;;;4.43;2.33;;;;;;;;;;5080908;28;20028;-78
2023/12/27 10:59:47;;;;;;;5.97;2.30;;;;;;;;;;5079576;28;20165;-77
2023/12/27 11:02:12;;;;;;;4.68;2.38;;;;;;;;;;5094123;28;20095;-79
2023/12/27 11:04:38;;;;;;;4.32;2.00;;;;;;;;;;5078540;28;20047;-78
2023/12/27 11:07:03;;;;;;;5.47;2.30;;;;;;;;;;5078287;28;20034;-78
2023/12/27 11:09:30;;;;;;;4.80;2.17;;;;;;;;;;5084558;28;20024;-77
2023/12/27 11:11:55;;;;;;;4.40;2.35;;;;;;;;;;5094697;28;20032;-78
2023/12/27 11:14:24;;;;;;;5.45;2.25;;;;;;;;;;5075899;28;20051;-76
2023/12/27 11:16:50;;;;;;;5.23;2.50;;;;;;;;;;5079952;28;20025;-79
2023/12/27 11:19:15;;;;;;;5.70;2.88;;;;;;;;;;5078610;28;20278;-80
2023/12/27 11:21:40;;;;;;;6.30;2.75;;;;;;;;;;5099931;28;20059;-77
2023/12/27 11:24:06;;;;;;;6.50;2.72;;;;;;;;;;5092110;28;20063;-76
2023/12/27 11:26:36;;;;;;;5.82;2.58;;;;;;;;;;5082085;28;20040;-69
2023/12/27 11:29:01;;;;;;;6.50;3.17;;;;;;;;;;5094281;28;20433;-71
2023/12/27 11:39:17;;;;;;;5.20;2.50;;;;;;;;;;3484575;22;20057;-67
2023/12/27 11:41:43;;;;;;;4.63;2.50;;;;;;;;;;5080221;28;20051;-66
2023/12/27 11:44:08;;;;;;;6.03;2.50;;;;;;;;;;5068110;28;20032;-68
2023/12/27 11:46:33;;;;;;;6.60;2.47;;;;;;;;;;5083200;28;20033;-68
2023/12/27 11:48:59;;;;;;;4.80;2.90;;;;;;;;;;5087752;28;20047;-67
2023/12/27 11:51:24;;;;;;;5.15;2.50;;;;;;;;;;5077288;28;20044;-67
2023/12/27 11:53:51;;;;;;;7.75;2.80;;;;;;;;;;5085406;28;20032;-66
2023/12/27 11:56:16;;;;;;;5.70;2.63;;;;;;;;;;5085291;28;20056;-67
2023/12/27 12:05:01;;;;;;;4.68;2.55;;;;;;;;;;5012992;28;20408;-75
2023/12/27 12:13:46;;;;;;;4.63;2.40;;;;;;;;;;4894899;28;20334;-76
2023/12/27 12:16:45;;;;;;;5.10;2.50;;;;;;;;;;4978841;28;20517;-75
2023/12/27 12:19:12;;;;;;;4.78;2.78;;;;;;;;;;5031026;28;20044;-69
2023/12/27 12:21:40;;;;;;;7.57;2.97;;;;;;;;;;5042274;28;20032;-73
2023/12/27 12:24:06;;;;;;;5.13;2.80;;;;;;;;;;5029232;28;20043;-70
2023/12/27 12:26:31;;;;;;;6.10;2.53;;;;;;;;;;5027888;28;20047;-70
2023/12/27 12:29:00;;;;;;;4.25;2.60;;;;;;;;;;5042254;28;20179;-70
2023/12/27 12:31:25;;;;;;;5.80;2.72;;;;;;;;;;5042017;28;20048;-70
2023/12/27 12:33:50;;;;;;;7.07;2.70;;;;;;;;;;5025703;28;20036;-73
2023/12/27 12:36:16;;;;;;;5.03;2.50;;;;;;;;;;5042110;28;20778;-73
2023/12/27 12:38:42;;;;;;;5.13;2.63;;;;;;;;;;5043985;28;20767;-72
2023/12/27 12:41:07;;;;;;;5.18;2.80;;;;;;;;;;5042772;28;20036;-72
2023/12/27 12:43:32;;;;;;;5.57;2.38;;;;;;;;;;5029461;28;20128;-71
2023/12/27 12:45:58;;;;;;;6.50;2.92;;;;;;;;;;5034172;28;20054;-72
2023/12/27 12:48:26;;;;;;;5.18;3.00;;;;;;;;;;5044352;28;20036;-72
2023/12/27 12:51:10;;;;;;;5.60;2.50;;;;;;;;;;5029862;28;20059;-71
2023/12/27 12:53:36;;;;;;;7.45;2.90;;;;;;;;;;5041960;28;20043;-71
2023/12/27 12:56:02;;;;;;;5.93;2.78;;;;;;;;;;5043172;28;20045;-71
2023/12/27 12:58:27;;;;;;;6.30;2.60;;;;;;;;;;5040655;28;20149;-72
2023/12/27 13:00:53;;;;;;;5.38;2.67;;;;;;;;;;5040551;28;20049;-71
2023/12/27 13:03:18;;;;;;;7.68;3.63;;;;;;;;;;5027795;28;20044;-73
2023/12/27 13:05:43;;;;;;;6.47;3.55;;;;;;;;;;5028997;28;22247;-71
2023/12/27 13:08:11;;;;;;;7.15;3.20;;;;;;;;;;5041559;28;20040;-70
2023/12/27 13:10:36;;;;;;;5.93;3.60;;;;;;;;;;5042692;28;20059;-70
2023/12/27 13:13:02;;;;;;;7.32;3.58;;;;;;;;;;5043596;28;20033;-71
2023/12/27 13:15:27;;;;;;;6.25;3.70;;;;;;;;;;5045533;28;20098;-73
2023/12/27 13:17:52;;;;;;;6.60;3.78;;;;;;;;;;5052382;28;20099;-73
2023/12/27 13:20:18;;;;;;;6.68;3.53;;;;;;;;;;5044688;28;21804;-73
2023/12/27 13:22:44;;;;;;;6.95;3.55;;;;;;;;;;5044760;28;20811;-71
2023/12/27 13:25:10;;;;;;;5.10;3.30;;;;;;;;;;5040513;28;20728;-73
2023/12/27 13:27:35;;;;;;;7.60;3.75;;;;;;;;;;5043143;28;20051;-71
2023/12/27 13:30:01;;;;;;;4.70;3.10;;;;;;;;;;5043414;28;20051;-71
2023/12/27 13:32:26;;;;;;;6.07;3.35;;;;;;;;;;5043125;28;20048;-72
2023/12/27 13:34:52;;;;;;;5.97;3.60;;;;;;;;;;5033894;28;20064;-72
2023/12/27 13:37:18;;;;;;;7.72;3.10;;;;;;;;;;5043567;28;20064;-69
2023/12/27 13:39:44;;;;;;;5.38;3.58;;;;;;;;;;5032575;28;20041;-74
2023/12/27 13:42:09;;;;;;;7.75;3.40;;;;;;;;;;5048974;28;20063;-73
2023/12/27 13:44:36;;;;;;;5.82;3.28;;;;;;;;;;5047386;28;20047;-74
2023/12/27 13:47:03;;;;;;;7.43;3.67;;;;;;;;;;5046766;28;20783;-73
2023/12/27 13:49:28;;;;;;;6.55;3.78;;;;;;;;;;5043449;28;20248;-73
2023/12/27 13:51:54;;;;;;;6.07;3.50;;;;;;;;;;5041996;28;20499;-72
2023/12/27 13:54:19;;;;;;;6.97;4.00;;;;;;;;;;5038514;28;21279;-71
2023/12/27 13:56:45;;;;;;;7.10;3.45;;;;;;;;;;5031349;28;20037;-71
2023/12/27 13:59:10;;;;;;;7.45;3.40;;;;;;;;;;5028838;28;20087;-70
2023/12/27 14:01:39;;;;;;;5.68;3.30;;;;;;;;;;5048215;28;20040;-71
2023/12/27 14:04:06;;;;;;;6.88;3.35;;;;;;;;;;5047902;28;20139;-72
2023/12/27 14:06:32;;;;;;;6.88;3.33;;;;;;;;;;5033680;28;20130;-72
2023/12/27 14:08:57;;;;;;;7.15;3.50;;;;;;;;;;5049654;28;20516;-72
2023/12/27 14:11:26;;;;;;;5.50;3.20;;;;;;;;;;5049286;28;20065;-72
2023/12/27 14:13:51;;;;;;;5.90;3.25;;;;;;;;;;5047264;28;20109;-71
2023/12/27 14:16:16;;;;;;;6.60;3.13;;;;;;;;;;5045174;28;20784;-72
2023/12/27 14:18:42;;;;;;;5.55;3.30;;;;;;;;;;5046314;28;20147;-69
2023/12/27 14:21:08;;;;;;;4.57;2.83;;;;;;;;;;5049414;28;20078;-72
2023/12/27 14:23:33;;;;;;;5.15;3.00;;;;;;;;;;5057199;28;20071;-74
2023/12/27 14:25:59;;;;;;;6.57;3.40;;;;;;;;;;5052386;28;21575;-75
2023/12/27 14:28:24;;;;;;;4.88;3.28;;;;;;;;;;5047396;28;20175;-74
2023/12/27 14:30:51;;;;;;;6.28;3.13;;;;;;;;;;5033800;28;20128;-74
2023/12/27 14:33:17;;;;;;;7.32;3.35;;;;;;;;;;5047550;28;20735;-73
2023/12/27 14:35:42;;;;;;;6.15;3.20;;;;;;;;;;5046392;28;20048;-73
2023/12/27 14:38:07;;;;;;;4.20;2.72;;;;;;;;;;5048510;28;20032;-73
2023/12/27 14:40:33;;;;;;;5.32;2.90;;;;;;;;;;5045319;28;20106;-71
2023/12/27 14:42:58;;;;;;;4.43;2.83;;;;;;;;;;5044574;28;20036;-71
2023/12/27 14:45:24;;;;;;;5.38;2.90;;;;;;;;;;5043950;28;20107;-72
2023/12/27 14:47:49;;;;;;;5.63;2.83;;;;;;;;;;5043206;28;20064;-73
2023/12/27 14:50:15;;;;;;;6.20;3.35;;;;;;;;;;5044052;28;20052;-71
2023/12/27 14:52:41;;;;;;;4.88;2.80;;;;;;;;;;5042956;28;20036;-72
2023/12/27 14:55:08;;;;;;;4.75;3.10;;;;;;;;;;5046471;28;20509;-73
2023/12/27 14:57:33;;;;;;;5.28;3.20;;;;;;;;;;5006297;28;20044;-70